Time;durP1;ratioP1;P1;durP2;ratioP2;P2;SDS_P1;SDS_P2;PMS_P1;PMS_P2;Temp;Humidity;BMP_temperature;BMP_pressure;BME280_temperature;BME280_humidity;BME280_pressure;Samples;Min_cycle;Max_cycle;Signal;HPM_P1;HPM_P2
2022/06/14 00:01:02;;;;;;;5.38;3.38;;;;;;;23.30;48.90;98487.16;5050621;28;20116;-79
2022/06/14 00:03:32;;;;;;;6.80;3.60;;;;;;;23.32;48.83;98487.75;5051011;28;20068;-79
2022/06/14 00:06:00;;;;;;;4.68;3.80;;;;;;;23.33;48.99;98485.94;5051058;28;20021;-78
2022/06/14 00:08:25;;;;;;;5.10;3.70;;;;;;;23.32;49.01;98476.31;5050604;28;20639;-78
2022/06/14 00:10:51;;;;;;;7.85;3.85;;;;;;;23.30;49.28;98482.63;5034254;28;20033;-78
2022/06/14 00:13:17;;;;;;;5.50;3.42;;;;;;;23.29;49.01;98478.34;5052121;28;20104;-79
2022/06/14 00:15:44;;;;;;;4.97;3.97;;;;;;;23.32;49.38;98485.09;5050464;28;20099;-79
2022/06/14 00:18:09;;;;;;;8.57;4.00;;;;;;;23.32;49.21;98482.44;5051093;28;20441;-78
2022/06/14 00:20:35;;;;;;;7.10;3.63;;;;;;;23.33;49.09;98475.28;5051676;28;20036;-79
2022/06/14 00:23:00;;;;;;;4.10;3.67;;;;;;;23.35;49.11;98482.03;5051627;28;20073;-78
2022/06/14 00:25:31;;;;;;;6.50;3.67;;;;;;;23.32;49.12;98479.78;5051849;28;20029;-79
2022/06/14 00:27:57;;;;;;;5.25;3.83;;;;;;;23.34;49.07;98479.56;5033986;28;20029;-78
2022/06/14 00:30:23;;;;;;;4.75;3.95;;;;;;;23.29;49.37;98481.03;5051685;28;20365;-79
2022/06/14 00:32:48;;;;;;;9.60;3.90;;;;;;;23.28;49.05;98486.56;5050560;28;20025;-79
2022/06/14 00:35:14;;;;;;;5.80;3.80;;;;;;;23.26;49.06;98485.91;5052035;28;20044;-79
2022/06/14 00:37:39;;;;;;;6.22;3.50;;;;;;;23.18;49.17;98486.13;5034090;28;20483;-79
2022/06/14 00:40:06;;;;;;;5.30;3.65;;;;;;;23.17;49.29;98484.50;5050094;28;20040;-79
2022/06/14 00:42:31;;;;;;;4.57;3.53;;;;;;;23.04;49.86;98482.59;5051471;28;20025;-79
2022/06/14 00:45:26;;;;;;;6.45;3.67;;;;;;;23.04;49.83;98490.59;5033659;28;20100;-79
2022/06/14 00:48:02;;;;;;;5.18;3.83;;;;;;;22.94;49.88;98483.00;5052932;28;20098;-79
2022/06/14 00:50:31;;;;;;;6.25;3.78;;;;;;;22.89;50.01;98488.94;5054010;28;20116;-79
2022/06/14 00:53:00;;;;;;;5.13;4.00;;;;;;;22.88;49.85;98482.00;5053684;28;20025;-79
2022/06/14 00:55:38;;;;;;;7.97;4.10;;;;;;;22.91;49.91;98484.25;5037606;28;20045;-79
2022/06/14 00:58:09;;;;;;;7.55;4.65;;;;;;;22.95;49.86;98484.66;5054280;28;20545;-79
2022/06/14 01:00:39;;;;;;;6.85;4.57;;;;;;;22.95;50.09;98485.47;5020901;28;20037;-79
2022/06/14 01:03:09;;;;;;;7.70;4.50;;;;;;;22.97;49.92;98487.13;5037392;28;20036;-79
2022/06/14 01:06:07;;;;;;;5.82;4.47;;;;;;;22.97;49.71;98477.28;5037801;28;20025;-79
2022/06/14 01:08:53;;;;;;;7.38;5.07;;;;;;;22.98;49.65;98480.75;5053887;28;20090;-79
2022/06/14 01:12:01;;;;;;;8.77;4.60;;;;;;;22.98;50.11;98476.28;5054714;28;20072;-79
2022/06/14 01:14:53;;;;;;;7.88;5.03;;;;;;;22.97;49.84;98481.78;5036095;28;20041;-79
2022/06/14 01:17:19;;;;;;;6.43;4.95;;;;;;;22.97;49.90;98477.28;4973862;28;20121;-79
2022/06/14 01:19:44;;;;;;;6.15;4.68;;;;;;;22.98;50.04;98472.75;4957612;28;20541;-79
2022/06/14 01:22:10;;;;;;;9.98;5.53;;;;;;;22.99;50.07;98472.56;4957010;28;20561;-79
2022/06/14 01:24:36;;;;;;;7.88;4.97;;;;;;;22.96;49.78;98470.31;4973426;28;20035;-79
2022/06/14 01:27:01;;;;;;;7.97;5.13;;;;;;;22.98;50.14;98468.28;4973441;28;20536;-79
2022/06/14 01:29:27;;;;;;;7.25;5.20;;;;;;;22.94;50.15;98467.88;4973482;28;20034;-79
2022/06/14 01:31:55;;;;;;;9.80;5.60;;;;;;;22.94;49.92;98465.22;4957240;28;20488;-79
2022/06/14 01:34:20;;;;;;;5.90;5.30;;;;;;;22.92;50.08;98471.75;4957270;28;20550;-78
2022/06/14 01:36:46;;;;;;;8.95;5.90;;;;;;;22.91;50.20;98473.59;4957376;28;20118;-79
2022/06/14 01:39:14;;;;;;;8.43;5.90;;;;;;;22.89;50.19;98467.66;4957297;28;20043;-79
2022/06/14 01:41:49;;;;;;;8.00;5.45;;;;;;;22.89;50.39;98467.66;4957362;28;20039;-79
2022/06/14 01:44:38;;;;;;;10.75;5.97;;;;;;;22.89;50.21;98475.63;4973345;28;20027;-79
2022/06/14 01:47:34;;;;;;;11.75;6.10;;;;;;;22.89;50.53;98485.47;4973174;28;20058;-80
2022/06/14 01:53:15;;;;;;;8.75;6.15;;;;;;;22.82;50.26;98481.97;4973150;28;20126;-79
2022/06/14 01:56:23;;;;;;;10.02;6.07;;;;;;;22.76;50.84;98476.44;5033823;28;20397;-79
2022/06/14 01:59:20;;;;;;;9.18;6.35;;;;;;;22.76;50.70;98489.75;5051471;28;20140;-87
2022/06/14 02:02:05;;;;;;;10.02;6.18;;;;;;;22.76;51.00;98488.94;5036214;28;20037;-87
2022/06/14 02:04:39;;;;;;;8.80;5.70;;;;;;;22.74;51.04;98480.34;5051743;28;20071;-88
2022/06/14 02:07:10;;;;;;;12.00;6.45;;;;;;;22.73;50.93;98486.66;5051733;28;20032;-86
2022/06/14 02:09:38;;;;;;;13.40;6.18;;;;;;;22.71;50.78;98478.88;5050653;28;20048;-88
2022/06/14 02:12:04;;;;;;;7.43;5.75;;;;;;;22.70;50.83;98479.91;5050894;28;20079;-90
2022/06/14 02:15:02;;;;;;;14.02;6.80;;;;;;;22.71;50.74;98481.56;5034649;28;20045;-89
2022/06/14 02:17:36;;;;;;;10.70;5.88;;;;;;;22.69;51.02;98486.25;5034786;28;20029;-87
2022/06/14 02:20:05;;;;;;;9.98;6.45;;;;;;;22.69;50.87;98493.41;5051417;28;20037;-87
2022/06/14 02:22:33;;;;;;;14.70;6.50;;;;;;;22.66;50.95;98491.97;5050788;28;20043;-88
2022/06/14 02:25:07;;;;;;;9.40;6.63;;;;;;;22.67;51.20;98490.13;5034505;28;20064;-81
2022/06/14 02:27:49;;;;;;;9.90;6.38;;;;;;;22.65;51.29;98492.19;5035183;28;20047;-83
2022/06/14 02:30:19;;;;;;;10.73;6.10;;;;;;;22.61;51.08;98486.44;5032085;28;20072;-76
2022/06/14 02:32:58;;;;;;;10.40;5.90;;;;;;;22.65;51.93;98486.88;5015952;28;20029;-77
2022/06/14 02:35:31;;;;;;;12.90;5.65;;;;;;;22.73;52.50;98490.13;5033229;28;20036;-77
2022/06/14 02:38:05;;;;;;;11.55;5.82;;;;;;;22.80;52.04;98487.47;5015723;28;20099;-76
2022/06/14 02:40:37;;;;;;;14.38;6.20;;;;;;;22.85;52.25;98492.19;5031881;28;20121;-73
2022/06/14 02:43:33;;;;;;;17.77;6.55;;;;;;;22.85;52.41;98489.53;4999170;28;20034;-73
2022/06/14 02:46:11;;;;;;;12.77;6.10;;;;;;;22.85;52.10;98481.56;5017892;28;20025;-75
2022/06/14 02:48:47;;;;;;;17.75;6.57;;;;;;;22.91;51.79;98489.56;5015864;28;20132;-76
2022/06/14 02:51:19;;;;;;;9.00;5.97;;;;;;;22.98;51.60;98494.06;5015488;28;20370;-76
2022/06/14 02:53:58;;;;;;;11.77;6.43;;;;;;;22.99;51.46;98488.53;5022138;28;20503;-77
2022/06/14 02:56:30;;;;;;;12.32;6.07;;;;;;;23.05;51.46;98492.25;5036452;28;20028;-79
2022/06/14 02:59:07;;;;;;;14.18;5.88;;;;;;;23.11;51.05;98496.78;5035614;28;20444;-90
2022/06/14 03:01:40;;;;;;;12.07;5.90;;;;;;;23.18;50.71;98497.59;5051487;28;20029;-79
2022/06/14 03:04:06;;;;;;;9.23;5.88;;;;;;;23.25;50.65;98505.59;5019112;28;20098;-80
2022/06/14 03:06:47;;;;;;;11.75;6.40;;;;;;;23.40;50.20;98492.88;5052545;28;20029;-76
2022/06/14 03:09:15;;;;;;;11.85;5.80;;;;;;;23.75;49.30;98505.13;5051842;28;20110;-76
2022/06/14 03:11:59;;;;;;;9.85;5.80;;;;;;;24.09;48.64;98504.06;5051271;28;20043;-74
2022/06/14 03:15:06;;;;;;;10.93;5.70;;;;;;;24.51;47.49;98503.66;5051149;28;20025;-76
2022/06/14 03:17:46;;;;;;;15.45;5.63;;;;;;;24.90;46.64;98496.50;5051174;28;20025;-75
2022/06/14 03:20:38;;;;;;;12.82;5.50;;;;;;;25.20;45.66;98503.88;5035700;28;20049;-88
2022/06/14 03:23:07;;;;;;;8.40;5.57;;;;;;;25.53;45.11;98505.50;5034818;28;20053;-87
2022/06/14 03:26:15;;;;;;;16.98;5.82;;;;;;;25.93;44.25;98502.41;5051840;28;20029;-84
2022/06/14 03:28:40;;;;;;;;;;;;;;;26.33;43.07;98500.13;5038448;28;20499;-84
2022/06/14 03:31:10;;;;;;;8.93;4.90;;;;;;;26.68;41.93;98498.69;5052804;28;19912;-79
2022/06/14 03:33:38;;;;;;;10.07;5.22;;;;;;;27.15;40.84;98501.50;5034355;28;20037;-77
2022/06/14 03:36:04;;;;;;;8.18;5.15;;;;;;;27.56;40.08;98497.13;5051298;28;20472;-81
2022/06/14 03:38:37;;;;;;;9.07;5.45;;;;;;;27.96;39.46;98499.06;5018003;28;20025;-79
2022/06/14 03:41:02;;;;;;;10.98;5.80;;;;;;;28.40;38.31;98497.78;5050930;28;20123;-75
2022/06/14 03:43:30;;;;;;;8.45;5.18;;;;;;;28.86;37.64;98499.50;5051887;28;20025;-75
2022/06/14 03:46:02;;;;;;;8.10;5.50;;;;;;;29.28;36.44;98498.31;5050913;28;20057;-75
2022/06/14 03:48:29;;;;;;;7.00;5.30;;;;;;;29.75;36.12;98503.31;5017776;28;20029;-75
2022/06/14 03:51:19;;;;;;;9.10;5.50;;;;;;;30.17;35.27;98495.78;5051579;28;20051;-79
2022/06/14 03:53:51;;;;;;;12.73;5.50;;;;;;;30.64;34.29;98501.47;5051746;28;20484;-73
2022/06/14 03:56:30;;;;;;;9.70;5.63;;;;;;;31.07;33.71;98500.81;5050793;28;20108;-73
2022/06/14 03:59:08;;;;;;;12.18;5.70;;;;;;;31.49;32.81;98505.44;5051182;28;20025;-72
2022/06/14 04:01:50;;;;;;;9.90;5.55;;;;;;;31.90;31.77;98503.81;5052063;28;20147;-72
2022/06/14 04:04:31;;;;;;;8.25;5.82;;;;;;;32.28;31.22;98509.94;5019309;28;20530;-73
2022/06/14 04:07:06;;;;;;;9.65;6.15;;;;;;;32.68;30.60;98512.25;5051921;28;20033;-73
2022/06/14 04:09:31;;;;;;;11.70;5.80;;;;;;;33.05;30.08;98512.03;5050683;28;20029;-73
2022/06/14 04:12:09;;;;;;;8.88;5.80;;;;;;;33.41;29.83;98501.19;5051813;28;20505;-73
2022/06/14 04:15:13;;;;;;;11.38;5.93;;;;;;;33.81;28.78;98507.66;5050566;28;20094;-72
2022/06/14 04:18:00;;;;;;;11.38;6.10;;;;;;;34.27;28.04;98508.56;5051051;28;20071;-73
2022/06/14 04:20:36;;;;;;;10.30;5.93;;;;;;;34.68;27.42;98501.03;5051744;28;20029;-73
2022/06/14 04:23:14;;;;;;;9.85;5.75;;;;;;;35.10;26.98;98505.06;5020528;28;20056;-73
2022/06/14 04:25:55;;;;;;;8.55;5.90;;;;;;;35.47;26.58;98511.00;5054398;28;20380;-73
2022/06/14 04:28:29;;;;;;;11.70;6.35;;;;;;;35.85;26.02;98514.72;5022745;28;20041;-73
2022/06/14 04:31:12;;;;;;;10.95;6.30;;;;;;;36.23;25.46;98517.53;5054571;28;20044;-73
2022/06/14 04:33:46;;;;;;;11.80;6.20;;;;;;;36.65;24.79;98525.94;5054219;28;20033;-72
2022/06/14 04:36:15;;;;;;;11.20;5.90;;;;;;;37.03;24.16;98519.69;5037974;28;20029;-73
2022/06/14 04:38:53;;;;;;;8.70;5.93;;;;;;;37.39;23.95;98517.22;5055614;28;20503;-72
2022/06/14 04:41:31;;;;;;;11.30;5.65;;;;;;;37.73;23.24;98518.78;5054175;28;20087;-73
2022/06/14 04:44:13;;;;;;;10.52;5.53;;;;;;;38.07;23.29;98524.97;5054004;28;20116;-72
2022/06/14 04:47:03;;;;;;;10.02;5.50;;;;;;;38.41;22.50;98538.13;5037721;28;20029;-72
2022/06/14 04:49:34;;;;;;;11.93;5.38;;;;;;;38.81;22.23;98526.66;5039031;28;20033;-73
2022/06/14 04:52:02;;;;;;;12.48;5.28;;;;;;;39.12;21.88;98525.94;5054864;28;20112;-75
2022/06/14 04:54:33;;;;;;;9.02;5.43;;;;;;;39.50;21.68;98531.78;5053337;28;20024;-73
2022/06/14 04:57:15;;;;;;;7.55;5.10;;;;;;;39.82;21.06;98532.56;5036952;28;20052;-73
2022/06/14 04:59:45;;;;;;;7.70;4.93;;;;;;;40.18;20.63;98539.78;5037257;28;20033;-72
2022/06/14 05:02:25;;;;;;;7.80;4.25;;;;;;;40.48;20.17;98538.09;5054076;28;20547;-73
2022/06/14 05:05:06;;;;;;;10.63;4.80;;;;;;;40.91;19.66;98543.94;5021134;28;20032;-77
2022/06/14 05:07:34;;;;;;;8.25;4.55;;;;;;;41.28;19.68;98534.25;5037698;28;20108;-75
2022/06/14 05:10:10;;;;;;;9.35;4.50;;;;;;;41.59;19.10;98538.66;5053414;28;20036;-72
2022/06/14 05:12:53;;;;;;;6.15;4.05;;;;;;;41.95;18.76;98543.69;5021383;28;20144;-76
2022/06/14 05:15:23;;;;;;;8.07;4.20;;;;;;;42.31;18.33;98541.59;5053605;28;20476;-73
2022/06/14 05:17:55;;;;;;;6.43;4.28;;;;;;;42.55;18.11;98545.63;5054730;28;20025;-74
2022/06/14 05:20:29;;;;;;;8.20;4.07;;;;;;;42.83;17.92;98551.38;5037707;28;20039;-73
2022/06/14 05:23:07;;;;;;;6.13;4.13;;;;;;;42.98;17.63;98559.00;5053222;28;20064;-73
2022/06/14 05:26:25;;;;;;;8.07;3.83;;;;;;;43.27;17.63;98554.56;5036432;28;20062;-73
2022/06/14 05:29:10;;;;;;;6.68;3.72;;;;;;;43.51;17.10;98556.56;5047506;28;20040;-75
2022/06/14 05:31:37;;;;;;;7.47;3.80;;;;;;;43.74;16.96;98553.38;5042472;28;20436;-74
2022/06/14 05:34:02;;;;;;;7.38;3.67;;;;;;;43.87;16.92;98560.53;5052157;28;20025;-73
2022/06/14 05:36:31;;;;;;;7.27;3.40;;;;;;;44.04;17.03;98559.47;5052037;28;20032;-74
2022/06/14 05:38:59;;;;;;;7.72;3.55;;;;;;;44.18;16.52;98552.84;5015584;28;20119;-72
2022/06/14 05:42:05;;;;;;;7.45;3.05;;;;;;;44.31;16.51;98559.16;5034453;28;20568;-74
2022/06/14 05:44:32;;;;;;;6.78;3.53;;;;;;;44.51;16.12;98560.16;5021965;28;20120;-74
2022/06/14 05:47:01;;;;;;;5.45;3.30;;;;;;;44.65;16.35;98557.84;5032470;28;20068;-75
2022/06/14 05:49:29;;;;;;;4.72;3.17;;;;;;;44.70;16.55;98565.06;5016430;28;20099;-73
2022/06/14 05:51:54;;;;;;;6.10;3.13;;;;;;;44.75;16.37;98562.84;5016511;28;20025;-79
2022/06/14 05:54:32;;;;;;;15.50;3.40;;;;;;;44.59;16.03;98562.78;5043140;28;20622;-76
2022/06/14 05:57:02;;;;;;;11.00;3.13;;;;;;;44.33;16.01;98568.66;5053756;28;20025;-70
2022/06/14 05:59:34;;;;;;;13.50;3.20;;;;;;;44.38;15.87;98564.88;5052623;28;20032;-71
2022/06/14 06:02:31;;;;;;;5.70;3.10;;;;;;;44.52;15.93;98575.50;5036635;28;20103;-72
2022/06/14 06:04:59;;;;;;;7.20;2.80;;;;;;;44.80;15.75;98573.63;5051679;28;20405;-72
2022/06/14 06:07:39;;;;;;;5.07;2.83;;;;;;;45.07;15.81;98576.75;5051550;28;20021;-71
2022/06/14 06:10:08;;;;;;;5.90;2.55;;;;;;;45.29;15.38;98575.34;5036671;28;20049;-71
2022/06/14 06:12:38;;;;;;;9.30;2.60;;;;;;;45.47;15.24;98569.56;5035321;28;20039;-71
2022/06/14 06:15:26;;;;;;;6.97;2.55;;;;;;;45.53;14.66;98572.84;5018459;28;20073;-72
2022/06/14 06:17:55;;;;;;;6.95;2.85;;;;;;;45.72;14.93;98577.66;5034784;28;20492;-71
2022/06/14 06:20:32;;;;;;;4.53;2.17;;;;;;;45.83;15.25;98582.31;5034851;28;20033;-71
2022/06/14 06:23:09;;;;;;;7.63;2.50;;;;;;;45.92;15.12;98581.31;5034792;28;20049;-71
2022/06/14 06:25:41;;;;;;;5.18;2.13;;;;;;;45.93;14.55;98574.63;5034736;28;20122;-71
2022/06/14 06:28:13;;;;;;;7.25;2.35;;;;;;;45.96;14.79;98587.72;5051116;28;20558;-71
2022/06/14 06:30:54;;;;;;;3.40;2.33;;;;;;;45.94;15.24;98587.28;5034403;28;20108;-71
2022/06/14 06:33:20;;;;;;;3.97;2.15;;;;;;;45.97;14.91;98579.06;5036653;28;20036;-72
2022/06/14 06:36:08;;;;;;;3.63;2.10;;;;;;;45.96;14.59;98584.94;5034377;28;20047;-70
2022/06/14 06:38:52;;;;;;;6.10;2.35;;;;;;;45.99;15.31;98589.75;5035763;28;20044;-70
2022/06/14 06:44:07;;;;;;;4.50;2.10;;;;;;;45.98;14.61;98591.72;5037626;28;20526;-77
2022/06/14 06:46:37;;;;;;;9.32;2.75;;;;;;;45.40;14.95;98585.91;5052107;28;20537;-73
2022/06/14 06:49:03;;;;;;;12.68;2.38;;;;;;;44.79;16.07;98590.50;5051660;28;20041;-75
2022/06/14 06:51:34;;;;;;;7.23;2.57;;;;;;;44.43;16.06;98584.69;5035160;28;20110;-71
2022/06/14 06:54:07;;;;;;;7.25;2.53;;;;;;;44.50;16.15;98588.81;5019358;28;20036;-72
2022/06/14 06:56:36;;;;;;;5.88;2.53;;;;;;;44.60;16.20;98582.84;5018824;28;20408;-71
2022/06/14 06:59:09;;;;;;;4.70;2.30;;;;;;;44.70;16.18;98587.06;5034891;28;20033;-75
2022/06/14 07:01:39;;;;;;;5.00;2.20;;;;;;;44.74;16.09;98577.78;5051449;28;20031;-77
2022/06/14 07:04:19;;;;;;;4.07;2.30;;;;;;;44.83;15.97;98576.81;5018875;28;20032;-82
2022/06/14 07:06:52;;;;;;;3.50;1.92;;;;;;;44.89;16.00;98580.94;5020694;28;20025;-82
2022/06/14 07:09:41;;;;;;;7.15;2.10;;;;;;;44.92;16.45;98588.50;5035516;28;20029;-83
2022/06/14 07:12:13;;;;;;;3.28;2.10;;;;;;;45.00;16.36;98589.53;5014524;28;20108;-90
2022/06/14 07:14:47;;;;;;;4.82;2.00;;;;;;;45.00;16.40;98595.03;5015418;28;20029;-82
2022/06/14 07:17:25;;;;;;;5.55;2.10;;;;;;;44.97;17.00;98597.28;5039664;28;20079;-82
2022/06/14 07:19:56;;;;;;;3.67;1.80;;;;;;;44.97;16.86;98597.28;5051432;28;20135;-82
2022/06/14 07:22:37;;;;;;;5.47;1.95;;;;;;;44.92;17.13;98591.25;5034355;28;20080;-79
2022/06/14 07:25:26;;;;;;;9.57;2.53;;;;;;;44.72;17.28;98598.53;5019081;28;20063;-84
2022/06/14 07:28:08;;;;;;;12.63;2.65;;;;;;;44.63;17.52;98598.69;5019251;28;20021;-87
2022/06/14 07:30:36;;;;;;;8.27;2.50;;;;;;;44.64;17.61;98596.72;5019860;28;20518;-78
2022/06/14 07:33:02;;;;;;;5.50;2.45;;;;;;;44.57;17.42;98595.31;5018578;28;20472;-76
2022/06/14 07:35:43;;;;;;;5.40;2.30;;;;;;;44.45;17.52;98595.34;5034514;28;20035;-77
2022/06/14 07:38:16;;;;;;;8.65;2.35;;;;;;;44.38;17.37;98597.91;5035248;28;20495;-77
2022/06/14 07:41:04;;;;;;;6.20;2.03;;;;;;;44.25;17.61;98599.81;5035178;28;20062;-77
2022/06/14 07:43:40;;;;;;;4.63;1.88;;;;;;;44.15;18.02;98601.06;5051289;28;20025;-76
2022/06/14 07:46:08;;;;;;;3.30;2.00;;;;;;;44.08;18.25;98603.59;5035661;28;20041;-78
2022/06/14 07:48:36;;;;;;;7.82;2.30;;;;;;;44.01;18.29;98606.94;4997186;28;20033;-79
2022/06/14 07:51:25;;;;;;;4.32;1.95;;;;;;;43.90;18.56;98605.75;5030108;28;20040;-77
2022/06/14 07:53:58;;;;;;;6.65;1.98;;;;;;;43.81;18.65;98603.13;5038759;28;20024;-78
2022/06/14 07:56:27;;;;;;;5.30;2.22;;;;;;;43.74;18.51;98608.34;5043756;28;20025;-79
2022/06/14 07:59:02;;;;;;;3.40;2.05;;;;;;;43.62;18.72;98597.31;5038342;28;20025;-77
2022/06/14 08:01:34;;;;;;;3.63;1.90;;;;;;;43.50;18.76;98600.88;5055182;28;20033;-80
2022/06/14 08:04:26;;;;;;;4.53;2.10;;;;;;;43.35;19.00;98605.84;5038568;28;20102;-76
2022/06/14 08:07:04;;;;;;;5.63;2.00;;;;;;;43.30;19.26;98613.47;5038291;28;20071;-75
2022/06/14 08:10:06;;;;;;;4.10;1.83;;;;;;;43.12;19.52;98599.13;5038395;28;20399;-75
2022/06/14 08:12:37;;;;;;;5.28;2.10;;;;;;;43.05;19.62;98604.34;5055860;28;20021;-76
2022/06/14 08:15:12;;;;;;;5.43;2.05;;;;;;;42.90;19.76;98600.25;5055771;28;20376;-76
2022/06/14 08:17:57;;;;;;;3.15;1.90;;;;;;;42.80;19.63;98601.47;5055461;28;20480;-78
2022/06/14 08:20:24;;;;;;;4.00;2.05;;;;;;;42.68;19.96;98601.38;5055817;28;20028;-76
2022/06/14 08:22:59;;;;;;;4.97;1.90;;;;;;;42.54;19.96;98596.13;5054350;28;20049;-75
2022/06/14 08:25:27;;;;;;;4.57;2.30;;;;;;;42.43;20.61;98607.50;5055619;28;20069;-76
2022/06/14 08:28:01;;;;;;;4.05;1.90;;;;;;;42.32;20.61;98599.97;5021309;28;20040;-77
2022/06/14 08:30:38;;;;;;;4.10;2.25;;;;;;;42.13;20.54;98598.47;5038802;28;20041;-76
2022/06/14 08:33:23;;;;;;;4.65;2.10;;;;;;;41.90;20.72;98590.47;5038094;28;20033;-78
2022/06/14 08:35:53;;;;;;;3.42;2.00;;;;;;;41.32;21.35;98597.38;5021325;28;20083;-76
2022/06/14 08:38:30;;;;;;;3.88;2.10;;;;;;;41.32;20.94;98598.19;5054507;28;20032;-76
2022/06/14 08:40:55;;;;;;;3.58;2.20;;;;;;;41.27;21.47;98601.06;5021670;28;20403;-76
2022/06/14 08:43:26;;;;;;;4.22;2.20;;;;;;;41.16;21.84;98592.38;5055330;28;20139;-76
2022/06/14 08:46:11;;;;;;;4.13;2.10;;;;;;;41.10;21.56;98595.59;5037474;28;20036;-76
2022/06/14 08:49:15;;;;;;;4.47;2.13;;;;;;;40.98;22.10;98594.31;5055257;28;20112;-77
2022/06/14 08:52:13;;;;;;;6.13;2.10;;;;;;;40.79;21.63;98589.16;5055038;28;20025;-76
2022/06/14 08:54:53;;;;;;;3.20;2.08;;;;;;;40.61;22.46;98591.06;5052519;28;20048;-76
2022/06/14 08:57:37;;;;;;;6.10;2.38;;;;;;;40.56;21.53;98588.47;5036752;28;20426;-76
2022/06/14 09:00:29;;;;;;;3.85;2.42;;;;;;;39.90;21.95;98585.66;5019714;28;20037;-79
2022/06/14 09:03:09;;;;;;;3.17;2.28;;;;;;;39.36;23.07;98582.94;5036328;28;20075;-75
2022/06/14 09:05:55;;;;;;;4.03;2.38;;;;;;;38.89;23.65;98581.28;5053106;28;20065;-76
2022/06/14 09:08:46;;;;;;;5.47;2.40;;;;;;;38.40;24.02;98579.34;5052351;28;20052;-76
2022/06/14 09:11:36;;;;;;;7.45;2.40;;;;;;;37.96;24.45;98590.53;5036233;28;20515;-76
2022/06/14 09:14:25;;;;;;;6.95;2.50;;;;;;;37.63;25.37;98587.03;5037259;28;20028;-76
2022/06/14 09:17:09;;;;;;;6.38;2.50;;;;;;;37.28;25.89;98578.38;5052563;28;20087;-74
2022/06/14 09:19:41;;;;;;;5.10;2.50;;;;;;;36.96;26.45;98581.81;5052440;28;20053;-76
2022/06/14 09:22:13;;;;;;;5.25;2.70;;;;;;;36.68;26.59;98574.31;5035662;28;20454;-75
2022/06/14 09:24:47;;;;;;;4.40;2.72;;;;;;;36.44;27.14;98574.34;5019073;28;20127;-76
2022/06/14 09:27:18;;;;;;;5.68;2.88;;;;;;;36.21;26.90;98574.06;5052408;28;20029;-77
2022/06/14 09:30:13;;;;;;;4.55;2.90;;;;;;;35.92;27.80;98568.69;5052635;28;20123;-77
2022/06/14 09:35:58;;;;;;;7.70;3.15;;;;;;;35.42;29.10;98555.28;5034406;28;20036;-75
2022/06/14 09:38:48;;;;;;;5.90;3.13;;;;;;;35.31;29.00;98551.03;5033266;28;20029;-74
2022/06/14 09:41:17;;;;;;;5.57;3.13;;;;;;;35.06;29.34;98546.59;5033284;28;20083;-76
2022/06/14 09:43:48;;;;;;;6.35;3.40;;;;;;;34.89;29.34;98553.25;5034210;28;20033;-75
2022/06/14 09:46:16;;;;;;;4.90;3.13;;;;;;;34.76;29.49;98548.44;5016641;28;20029;-77
2022/06/14 09:49:04;;;;;;;5.75;3.22;;;;;;;34.58;30.21;98536.31;5033749;28;20052;-75
2022/06/14 09:51:55;;;;;;;5.75;3.05;;;;;;;34.42;29.69;98543.72;5033044;28;20041;-76
2022/06/14 09:54:55;;;;;;;8.60;3.65;;;;;;;34.20;30.07;98544.06;5033345;28;20389;-75
2022/06/14 09:57:38;;;;;;;4.72;3.05;;;;;;;33.99;30.01;98546.03;5051485;28;20029;-77
2022/06/14 10:00:15;;;;;;;4.35;3.20;;;;;;;33.81;30.43;98552.84;5052156;28;20045;-76
2022/06/14 10:03:14;;;;;;;6.95;3.20;;;;;;;33.56;30.77;98554.50;5034889;28;20032;-75
2022/06/14 10:06:02;;;;;;;5.65;3.30;;;;;;;33.35;31.43;98549.09;5051619;28;20424;-77
2022/06/14 10:08:52;;;;;;;5.32;3.22;;;;;;;33.08;31.66;98552.00;5051658;28;20025;-77
2022/06/14 10:11:23;;;;;;;6.55;3.20;;;;;;;32.91;31.93;98565.81;5030310;28;20048;-77
2022/06/14 10:14:19;;;;;;;5.93;3.22;;;;;;;32.71;32.01;98558.44;5034598;28;20029;-77
2022/06/14 10:16:56;;;;;;;7.28;3.15;;;;;;;32.44;32.57;98570.22;5034592;28;20033;-75
2022/06/14 10:19:53;;;;;;;6.38;3.10;;;;;;;32.22;32.67;98569.59;5034419;28;20045;-76
2022/06/14 10:22:32;;;;;;;7.78;3.40;;;;;;;32.04;32.50;98568.13;5034293;28;20148;-76
2022/06/14 10:25:19;;;;;;;8.07;3.50;;;;;;;31.86;32.21;98582.88;5034565;28;20049;-76
2022/06/14 10:28:12;;;;;;;6.07;3.42;;;;;;;31.64;32.36;98588.38;5050599;28;20072;-75
2022/06/14 10:30:46;;;;;;;4.65;3.20;;;;;;;31.45;32.58;98585.25;5030360;28;20487;-75
2022/06/14 10:33:18;;;;;;;5.22;3.40;;;;;;;31.35;32.58;98577.88;5031345;28;20029;-75
2022/06/14 10:36:11;;;;;;;6.40;3.38;;;;;;;31.16;32.19;98564.78;5032895;28;20088;-77
2022/06/14 10:38:57;;;;;;;5.15;3.10;;;;;;;30.93;32.42;98565.06;5032118;28;20488;-75
2022/06/14 10:41:39;;;;;;;5.05;3.30;;;;;;;30.68;32.61;98566.44;5032896;28;20445;-76
2022/06/14 10:44:16;;;;;;;6.32;3.30;;;;;;;30.52;32.99;98587.00;5048273;28;20404;-77
2022/06/14 10:47:00;;;;;;;4.68;3.53;;;;;;;30.40;33.48;98578.22;5031852;28;20021;-77
2022/06/14 10:49:39;;;;;;;6.85;3.17;;;;;;;30.27;33.38;98579.38;5031752;28;20124;-75
2022/06/14 10:52:19;;;;;;;5.22;3.13;;;;;;;30.18;33.43;98583.56;5033311;28;20076;-76
2022/06/14 10:55:15;;;;;;;5.70;3.35;;;;;;;30.09;34.07;98591.25;5035145;28;20040;-76
2022/06/14 10:58:02;;;;;;;7.70;3.00;;;;;;;30.06;34.56;98599.81;5053267;28;20029;-77
2022/06/14 11:00:44;;;;;;;5.93;3.15;;;;;;;30.00;34.77;98606.19;5052699;28;20499;-76
2022/06/14 11:03:12;;;;;;;4.65;3.00;;;;;;;29.92;35.60;98620.88;5035221;28;20052;-77
2022/06/14 11:05:52;;;;;;;4.85;3.05;;;;;;;29.87;35.96;98624.31;5052628;28;20060;-76
2022/06/14 11:08:32;;;;;;;4.57;2.97;;;;;;;29.84;36.02;98635.56;5051905;28;20044;-76
2022/06/14 11:11:35;;;;;;;6.60;3.00;;;;;;;29.82;35.97;98636.88;5051939;28;20044;-76
2022/06/14 11:14:08;;;;;;;4.93;2.90;;;;;;;29.71;36.54;98646.59;5052446;28;20032;-74
2022/06/14 11:16:34;;;;;;;5.80;2.95;;;;;;;29.62;36.81;98634.63;5051401;28;20083;-76
2022/06/14 11:19:26;;;;;;;4.88;2.80;;;;;;;29.63;36.67;98644.34;5052508;28;20025;-77
2022/06/14 11:22:35;;;;;;;4.80;2.88;;;;;;;29.61;37.21;98635.69;5022786;28;20095;-76
2022/06/14 11:25:06;;;;;;;4.50;3.30;;;;;;;29.58;36.89;98621.66;5052726;28;20029;-75
2022/06/14 11:27:52;;;;;;;6.72;3.38;;;;;;;29.58;37.01;98616.28;5051134;28;20555;-76
2022/06/14 11:30:30;;;;;;;6.10;3.10;;;;;;;29.58;37.57;98597.44;5051349;28;20037;-76
2022/06/14 11:33:18;;;;;;;6.93;2.85;;;;;;;29.58;37.26;98567.88;5036211;28;20438;-77
2022/06/14 11:36:09;;;;;;;7.20;3.08;;;;;;;29.58;37.46;98565.19;5052315;28;20446;-76
2022/06/14 11:38:55;;;;;;;6.55;2.92;;;;;;;29.59;37.23;98547.19;5033412;28;20032;-77
2022/06/14 11:41:23;;;;;;;5.30;3.15;;;;;;;29.62;37.48;98538.63;5050240;28;20118;-76
2022/06/14 11:44:23;;;;;;;4.95;2.92;;;;;;;29.66;37.20;98520.94;5033918;28;20099;-76
2022/06/14 11:47:16;;;;;;;6.57;3.05;;;;;;;29.69;37.16;98522.31;4971039;28;20030;-76
2022/06/14 11:50:03;;;;;;;4.80;2.90;;;;;;;29.71;37.21;98512.94;4955195;28;20046;-76
2022/06/14 11:53:25;;;;;;;5.10;2.97;;;;;;;29.77;37.06;98520.00;4971325;28;20026;-75
2022/06/14 11:55:59;;;;;;;4.78;2.80;;;;;;;29.80;37.01;98526.00;4932702;29;20043;-76
2022/06/14 11:58:50;;;;;;;4.68;2.90;;;;;;;29.84;36.75;98533.34;4933100;29;20059;-76
2022/06/14 12:01:31;;;;;;;5.05;3.03;;;;;;;29.85;36.46;98542.22;4933201;29;20044;-75
2022/06/14 12:04:24;;;;;;;5.28;2.63;;;;;;;29.86;36.50;98541.97;4933002;29;20048;-77
2022/06/14 12:06:58;;;;;;;3.85;2.60;;;;;;;29.93;36.04;98549.84;4933180;29;20044;-76
2022/06/14 12:09:54;;;;;;;8.18;2.63;;;;;;;29.94;36.46;98560.38;4932975;29;20039;-75
2022/06/14 12:12:56;;;;;;;4.07;2.72;;;;;;;30.01;36.45;98567.44;4917142;29;20036;-76
2022/06/14 12:15:43;;;;;;;4.55;2.65;;;;;;;30.04;36.42;98566.97;4932294;29;20530;-76
2022/06/14 12:18:09;;;;;;;4.72;2.85;;;;;;;30.06;36.25;98573.72;4933245;29;20043;-75
2022/06/14 12:20:40;;;;;;;4.60;2.80;;;;;;;30.08;36.28;98573.47;4916773;29;20040;-74
2022/06/14 12:23:11;;;;;;;6.43;2.75;;;;;;;30.10;36.53;98572.16;4963181;28;20121;-76
2022/06/14 12:28:59;;;;;;;5.20;2.45;;;;;;;30.20;36.18;98581.44;5032275;28;20099;-77
2022/06/14 12:31:51;;;;;;;5.68;2.88;;;;;;;30.25;36.33;98586.88;5029552;28;20038;-77
2022/06/14 12:34:24;;;;;;;4.03;2.60;;;;;;;30.26;36.20;98592.00;5029705;28;20084;-75